sensor_id;sensor_type;location;lat;lon;timestamp;pressure;altitude;pressure_sealevel;temperature;humidity
10921;BME280;5513;50.580;8.818;2023-04-19T00:00:15;99945.50;;;10.97;100.00
10921;BME280;5513;50.580;8.818;2023-04-19T00:02:44;99944.47;;;10.99;100.00
10921;BME280;5513;50.580;8.818;2023-04-19T00:05:16;99943.03;;;10.94;100.00
10921;BME280;5513;50.580;8.818;2023-04-19T00:07:48;99941.22;;;10.94;100.00
10921;BME280;5513;50.580;8.818;2023-04-19T00:10:16;99927.66;;;11.00;100.00
10921;BME280;5513;50.580;8.818;2023-04-19T00:12:45;99923.81;;;11.06;100.00
10921;BME280;5513;50.580;8.818;2023-04-19T00:15:13;99927.66;;;11.00;100.00
10921;BME280;5513;50.580;8.818;2023-04-19T00:17:41;99928.03;;;11.10;100.00
10921;BME280;5513;50.580;8.818;2023-04-19T00:20:10;99922.28;;;11.17;100.00
10921;BME280;5513;50.580;8.818;2023-04-19T00:22:40;99928.63;;;11.15;100.00
10921;BME280;5513;50.580;8.818;2023-04-19T00:25:08;99916.97;;;11.17;100.00
10921;BME280;5513;50.580;8.818;2023-04-19T00:27:37;99913.59;;;11.31;100.00
10921;BME280;5513;50.580;8.818;2023-04-19T00:30:06;99914.84;;;11.24;100.00
10921;BME280;5513;50.580;8.818;2023-04-19T00:32:34;99916.91;;;11.35;100.00
10921;BME280;5513;50.580;8.818;2023-04-19T00:35:02;99916.72;;;11.38;100.00
10921;BME280;5513;50.580;8.818;2023-04-19T00:37:30;99916.81;;;11.36;100.00
10921;BME280;5513;50.580;8.818;2023-04-19T00:40:00;99917.94;;;11.32;100.00
10921;BME280;5513;50.580;8.818;2023-04-19T00:42:31;99909.13;;;11.32;100.00
10921;BME280;5513;50.580;8.818;2023-04-19T00:44:59;99905.44;;;11.34;100.00
10921;BME280;5513;50.580;8.818;2023-04-19T00:47:27;99907.06;;;11.37;100.00
10921;BME280;5513;50.580;8.818;2023-04-19T00:49:55;99911.78;;;11.47;100.00
10921;BME280;5513;50.580;8.818;2023-04-19T00:52:24;99901.75;;;11.37;100.00
10921;BME280;5513;50.580;8.818;2023-04-19T00:54:53;99904.94;;;11.43;100.00
10921;BME280;5513;50.580;8.818;2023-04-19T00:57:23;99906.56;;;11.46;100.00
10921;BME280;5513;50.580;8.818;2023-04-19T00:59:53;99902.03;;;11.32;100.00
10921;BME280;5513;50.580;8.818;2023-04-19T01:02:22;99900.06;;;11.36;100.00
10921;BME280;5513;50.580;8.818;2023-04-19T01:04:50;99905.38;;;11.36;100.00
10921;BME280;5513;50.580;8.818;2023-04-19T01:07:19;99889.78;;;11.45;100.00
10921;BME280;5513;50.580;8.818;2023-04-19T01:09:47;99896.56;;;11.35;100.00
10921;BME280;5513;50.580;8.818;2023-04-19T01:12:16;99891.16;;;11.21;100.00
10921;BME280;5513;50.580;8.818;2023-04-19T01:14:46;99895.13;;;11.30;100.00
10921;BME280;5513;50.580;8.818;2023-04-19T01:17:15;99889.44;;;11.36;100.00
10921;BME280;5513;50.580;8.818;2023-04-19T01:19:44;99885.16;;;11.02;100.00
10921;BME280;5513;50.580;8.818;2023-04-19T01:22:17;99890.38;;;11.19;100.00
10921;BME280;5513;50.580;8.818;2023-04-19T01:24:45;99894.84;;;10.85;100.00
10921;BME280;5513;50.580;8.818;2023-04-19T01:27:13;99893.69;;;10.91;100.00
10921;BME280;5513;50.580;8.818;2023-04-19T01:29:43;99897.78;;;10.97;100.00
10921;BME280;5513;50.580;8.818;2023-04-19T01:32:11;99898.50;;;11.00;100.00
10921;BME280;5513;50.580;8.818;2023-04-19T01:34:40;99887.44;;;10.92;100.00
10921;BME280;5513;50.580;8.818;2023-04-19T01:37:09;99889.91;;;10.95;100.00
10921;BME280;5513;50.580;8.818;2023-04-19T01:39:38;99892.41;;;10.98;100.00
10921;BME280;5513;50.580;8.818;2023-04-19T01:42:06;99886.88;;;11.03;100.00
10921;BME280;5513;50.580;8.818;2023-04-19T01:44:34;99881.19;;;10.93;100.00
10921;BME280;5513;50.580;8.818;2023-04-19T01:47:04;99888.28;;;10.93;100.00
10921;BME280;5513;50.580;8.818;2023-04-19T01:49:32;99880.16;;;10.96;100.00
10921;BME280;5513;50.580;8.818;2023-04-19T01:52:01;99880.63;;;11.04;100.00
10921;BME280;5513;50.580;8.818;2023-04-19T01:54:29;99878.72;;;11.06;100.00
10921;BME280;5513;50.580;8.818;2023-04-19T01:56:58;99882.72;;;10.97;100.00
10921;BME280;5513;50.580;8.818;2023-04-19T01:59:27;99882.63;;;10.83;100.00
10921;BME280;5513;50.580;8.818;2023-04-19T02:01:55;99877.59;;;10.94;100.00
10921;BME280;5513;50.580;8.818;2023-04-19T02:04:25;99882.00;;;10.78;100.00
10921;BME280;5513;50.580;8.818;2023-04-19T02:06:53;99873.91;;;10.81;100.00
10921;BME280;5513;50.580;8.818;2023-04-19T02:09:21;99871.31;;;10.79;100.00
10921;BME280;5513;50.580;8.818;2023-04-19T02:11:50;99868.94;;;10.75;100.00
10921;BME280;5513;50.580;8.818;2023-04-19T02:14:19;99869.50;;;10.64;100.00
10921;BME280;5513;50.580;8.818;2023-04-19T02:16:47;99871.66;;;10.73;100.00
10921;BME280;5513;50.580;8.818;2023-04-19T02:19:16;99859.34;;;10.72;100.00
10921;BME280;5513;50.580;8.818;2023-04-19T02:21:45;99864.50;;;10.58;100.00
10921;BME280;5513;50.580;8.818;2023-04-19T02:24:14;99864.22;;;10.64;100.00
10921;BME280;5513;50.580;8.818;2023-04-19T02:26:42;99854.81;;;10.74;100.00
10921;BME280;5513;50.580;8.818;2023-04-19T02:29:11;99853.03;;;10.75;100.00
10921;BME280;5513;50.580;8.818;2023-04-19T02:31:41;99855.78;;;10.73;100.00
10921;BME280;5513;50.580;8.818;2023-04-19T02:34:11;99854.81;;;10.74;100.00
10921;BME280;5513;50.580;8.818;2023-04-19T02:36:40;99854.63;;;10.62;100.00
10921;BME280;5513;50.580;8.818;2023-04-19T02:39:08;99846.25;;;10.69;100.00
10921;BME280;5513;50.580;8.818;2023-04-19T02:41:36;99853.34;;;10.69;100.00
10921;BME280;5513;50.580;8.818;2023-04-19T02:44:04;99843.91;;;10.47;100.00
10921;BME280;5513;50.580;8.818;2023-04-19T02:46:32;99844.19;;;10.58;100.00
10921;BME280;5513;50.580;8.818;2023-04-19T02:49:02;99842.56;;;10.56;100.00
10921;BME280;5513;50.580;8.818;2023-04-19T02:51:32;99848.50;;;10.44;100.00
10921;BME280;5513;50.580;8.818;2023-04-19T02:54:00;99838.19;;;10.55;100.00
10921;BME280;5513;50.580;8.818;2023-04-19T02:56:29;99845.44;;;10.51;100.00
10921;BME280;5513;50.580;8.818;2023-04-19T02:58:59;99833.59;;;10.58;100.00
10921;BME280;5513;50.580;8.818;2023-04-19T03:01:27;99825.91;;;10.54;100.00
10921;BME280;5513;50.580;8.818;2023-04-19T03:03:56;99829.13;;;10.43;100.00
10921;BME280;5513;50.580;8.818;2023-04-19T03:06:27;99829.16;;;10.42;100.00
10921;BME280;5513;50.580;8.818;2023-04-19T03:08:55;99827.69;;;10.53;100.00
10921;BME280;5513;50.580;8.818;2023-04-19T03:11:23;99824.59;;;10.45;100.00
10921;BME280;5513;50.580;8.818;2023-04-19T03:13:53;99823.19;;;10.38;100.00
10921;BME280;5513;50.580;8.818;2023-04-19T03:16:23;99818.81;;;10.54;100.00
10921;BME280;5513;50.580;8.818;2023-04-19T03:18:52;99831.50;;;10.48;100.00
10921;BME280;5513;50.580;8.818;2023-04-19T03:21:21;99821.09;;;10.45;100.00
10921;BME280;5513;50.580;8.818;2023-04-19T03:23:55;99817.13;;;10.36;100.00
10921;BME280;5513;50.580;8.818;2023-04-19T03:26:23;99816.00;;;10.40;100.00
10921;BME280;5513;50.580;8.818;2023-04-19T03:28:52;99813.06;;;10.29;100.00
10921;BME280;5513;50.580;8.818;2023-04-19T03:31:21;99811.91;;;10.35;100.00
10921;BME280;5513;50.580;8.818;2023-04-19T03:33:50;99811.81;;;10.36;100.00
10921;BME280;5513;50.580;8.818;2023-04-19T03:36:18;99810.88;;;10.37;100.00
10921;BME280;5513;50.580;8.818;2023-04-19T03:38:46;99806.53;;;10.36;100.00
10921;BME280;5513;50.580;8.818;2023-04-19T03:41:19;99805.31;;;10.26;100.00
10921;BME280;5513;50.580;8.818;2023-04-19T03:43:48;99804.19;;;10.30;100.00
10921;BME280;5513;50.580;8.818;2023-04-19T03:46:16;99798.50;;;10.38;100.00
10921;BME280;5513;50.580;8.818;2023-04-19T03:48:47;99805.41;;;10.40;100.00
10921;BME280;5513;50.580;8.818;2023-04-19T03:51:15;99797.72;;;10.36;100.00
10921;BME280;5513;50.580;8.818;2023-04-19T03:53:44;99800.66;;;10.47;100.00
10921;BME280;5513;50.580;8.818;2023-04-19T03:56:13;99793.88;;;10.41;100.00
10921;BME280;5513;50.580;8.818;2023-04-19T03:58:43;99794.59;;;10.45;100.00
10921;BME280;5513;50.580;8.818;2023-04-19T04:01:17;99790.53;;;10.55;100.00
10921;BME280;5513;50.580;8.818;2023-04-19T04:03:47;99801.41;;;10.33;100.00
10921;BME280;5513;50.580;8.818;2023-04-19T04:06:16;99790.28;;;10.26;100.00
10921;BME280;5513;50.580;8.818;2023-04-19T04:08:44;99792.44;;;10.18;100.00
10921;BME280;5513;50.580;8.818;2023-04-19T04:11:13;99782.34;;;10.26;100.00
10921;BME280;5513;50.580;8.818;2023-04-19T04:13:44;99787.63;;;10.26;100.00
10921;BME280;5513;50.580;8.818;2023-04-19T04:16:12;99786.78;;;10.26;100.00
10921;BME280;5513;50.580;8.818;2023-04-19T04:18:41;99787.78;;;10.23;100.00
10921;BME280;5513;50.580;8.818;2023-04-19T04:21:09;99794.47;;;10.30;100.00
10921;BME280;5513;50.580;8.818;2023-04-19T04:23:37;99798.22;;;10.26;100.00
10921;BME280;5513;50.580;8.818;2023-04-19T04:26:06;99791.50;;;10.37;100.00
10921;BME280;5513;50.580;8.818;2023-04-19T04:28:35;99787.50;;;10.45;100.00
10921;BME280;5513;50.580;8.818;2023-04-19T04:31:08;99783.09;;;10.11;100.00
10921;BME280;5513;50.580;8.818;2023-04-19T04:33:38;99799.44;;;10.19;100.00
10921;BME280;5513;50.580;8.818;2023-04-19T04:36:07;99792.91;;;10.26;100.00
10921;BME280;5513;50.580;8.818;2023-04-19T04:38:37;99792.56;;;10.32;100.00
10921;BME280;5513;50.580;8.818;2023-04-19T04:41:05;99798.19;;;10.44;100.00
10921;BME280;5513;50.580;8.818;2023-04-19T04:43:34;99789.34;;;10.27;100.00
10921;BME280;5513;50.580;8.818;2023-04-19T04:46:05;99793.16;;;10.22;100.00
10921;BME280;5513;50.580;8.818;2023-04-19T04:48:34;99793.53;;;10.31;100.00
10921;BME280;5513;50.580;8.818;2023-04-19T04:51:03;99787.53;;;10.11;100.00
10921;BME280;5513;50.580;8.818;2023-04-19T04:53:31;99798.84;;;10.14;100.00
10921;BME280;5513;50.580;8.818;2023-04-19T04:56:00;99795.56;;;10.09;100.00
10921;BME280;5513;50.580;8.818;2023-04-19T04:58:28;99794.94;;;10.04;100.00
10921;BME280;5513;50.580;8.818;2023-04-19T05:00:56;99787.22;;;10.17;100.00
10921;BME280;5513;50.580;8.818;2023-04-19T05:03:27;99784.09;;;10.09;100.00
10921;BME280;5513;50.580;8.818;2023-04-19T05:05:55;99792.91;;;10.09;100.00
10921;BME280;5513;50.580;8.818;2023-04-19T05:08:24;99799.31;;;10.05;100.00
10921;BME280;5513;50.580;8.818;2023-04-19T05:10:52;99788.47;;;10.10;100.00
10921;BME280;5513;50.580;8.818;2023-04-19T05:13:20;99793.38;;;10.00;100.00
10921;BME280;5513;50.580;8.818;2023-04-19T05:15:49;99786.06;;;10.05;100.00
10921;BME280;5513;50.580;8.818;2023-04-19T05:18:17;99791.50;;;10.02;100.00
10921;BME280;5513;50.580;8.818;2023-04-19T05:20:46;99786.63;;;9.94;100.00
10921;BME280;5513;50.580;8.818;2023-04-19T05:23:16;99795.03;;;9.85;100.00
10921;BME280;5513;50.580;8.818;2023-04-19T05:25:44;99791.28;;;9.89;100.00
10921;BME280;5513;50.580;8.818;2023-04-19T05:28:13;99794.47;;;9.96;100.00
10921;BME280;5513;50.580;8.818;2023-04-19T05:30:41;99794.94;;;10.04;100.00
10921;BME280;5513;50.580;8.818;2023-04-19T05:33:09;99793.06;;;10.06;100.00
10921;BME280;5513;50.580;8.818;2023-04-19T05:35:38;99788.78;;;10.03;100.00
10921;BME280;5513;50.580;8.818;2023-04-19T05:38:08;99789.09;;;9.97;100.00
10921;BME280;5513;50.580;8.818;2023-04-19T05:40:36;99784.84;;;9.78;100.00
10921;BME280;5513;50.580;8.818;2023-04-19T05:43:05;99782.88;;;9.81;100.00
10921;BME280;5513;50.580;8.818;2023-04-19T05:45:34;99775.66;;;9.67;100.00
10921;BME280;5513;50.580;8.818;2023-04-19T05:48:02;99784.84;;;9.78;100.00
10921;BME280;5513;50.580;8.818;2023-04-19T05:50:31;99783.22;;;9.75;100.00
10921;BME280;5513;50.580;8.818;2023-04-19T05:52:59;99770.44;;;9.66;100.00
10921;BME280;5513;50.580;8.818;2023-04-19T05:55:29;99772.00;;;9.70;100.00
10921;BME280;5513;50.580;8.818;2023-04-19T05:57:57;99770.84;;;9.75;100.00
10921;BME280;5513;50.580;8.818;2023-04-19T06:00:25;99774.63;;;9.70;100.00
10921;BME280;5513;50.580;8.818;2023-04-19T06:02:54;99772.16;;;9.67;100.00
10921;BME280;5513;50.580;8.818;2023-04-19T06:05:23;99781.78;;;9.68;100.00
10921;BME280;5513;50.580;8.818;2023-04-19T06:07:52;99776.97;;;9.59;100.00
10921;BME280;5513;50.580;8.818;2023-04-19T06:10:29;99785.50;;;9.64;100.00
10921;BME280;5513;50.580;8.818;2023-04-19T06:13:18;99782.94;;;9.62;100.00
10921;BME280;5513;50.580;8.818;2023-04-19T06:15:46;99779.78;;;9.56;100.00
10921;BME280;5513;50.580;8.818;2023-04-19T06:18:14;99782.81;;;9.65;100.00
10921;BME280;5513;50.580;8.818;2023-04-19T06:20:45;99787.72;;;9.56;100.00
10921;BME280;5513;50.580;8.818;2023-04-19T06:23:14;99787.16;;;9.66;100.00
10921;BME280;5513;50.580;8.818;2023-04-19T06:25:46;99784.91;;;9.59;100.00
10921;BME280;5513;50.580;8.818;2023-04-19T06:28:14;99786.38;;;9.64;100.00
10921;BME280;5513;50.580;8.818;2023-04-19T06:30:43;99780.31;;;9.80;100.00
10921;BME280;5513;50.580;8.818;2023-04-19T06:33:11;99782.78;;;9.83;100.00
10921;BME280;5513;50.580;8.818;2023-04-19T06:35:39;99781.81;;;9.85;100.00
10921;BME280;5513;50.580;8.818;2023-04-19T06:38:07;99785.31;;;9.86;100.00
10921;BME280;5513;50.580;8.818;2023-04-19T06:40:35;99787.94;;;9.86;100.00
10921;BME280;5513;50.580;8.818;2023-04-19T06:43:05;99786.63;;;9.94;100.00
10921;BME280;5513;50.580;8.818;2023-04-19T06:45:33;99783.56;;;10.02;100.00
10921;BME280;5513;50.580;8.818;2023-04-19T06:48:02;99785.50;;;10.16;100.00
10921;BME280;5513;50.580;8.818;2023-04-19T06:50:30;99789.56;;;10.23;100.00
10921;BME280;5513;50.580;8.818;2023-04-19T06:52:58;99785.03;;;10.08;100.00
10921;BME280;5513;50.580;8.818;2023-04-19T06:55:30;99781.66;;;10.21;100.00
10921;BME280;5513;50.580;8.818;2023-04-19T06:57:59;99786.38;;;10.16;100.00
10921;BME280;5513;50.580;8.818;2023-04-19T07:00:29;99784.50;;;10.18;100.00
10921;BME280;5513;50.580;8.818;2023-04-19T07:02:57;99782.16;;;10.29;100.00
10921;BME280;5513;50.580;8.818;2023-04-19T07:05:27;99786.97;;;10.21;100.00
10921;BME280;5513;50.580;8.818;2023-04-19T07:07:56;99778.47;;;10.32;100.00
10921;BME280;5513;50.580;8.818;2023-04-19T07:10:24;99774.09;;;10.48;100.00
10921;BME280;5513;50.580;8.818;2023-04-19T07:12:52;99772.06;;;10.53;100.00
10921;BME280;5513;50.580;8.818;2023-04-19T07:15:21;99777.72;;;10.79;100.00
10921;BME280;5513;50.580;8.818;2023-04-19T07:17:50;99773.28;;;10.95;100.00
10921;BME280;5513;50.580;8.818;2023-04-19T07:20:19;99761.84;;;11.10;100.00
10921;BME280;5513;50.580;8.818;2023-04-19T07:22:47;99763.63;;;11.10;100.00
10921;BME280;5513;50.580;8.818;2023-04-19T07:25:16;99759.78;;;10.84;100.00
10921;BME280;5513;50.580;8.818;2023-04-19T07:27:44;99762.28;;;11.03;100.00
10921;BME280;5513;50.580;8.818;2023-04-19T07:30:12;99756.97;;;11.03;100.00
10921;BME280;5513;50.580;8.818;2023-04-19T07:32:41;99763.63;;;10.63;100.00
10921;BME280;5513;50.580;8.818;2023-04-19T07:35:11;99763.69;;;10.61;100.00
10921;BME280;5513;50.580;8.818;2023-04-19T07:37:39;99762.66;;;10.48;100.00
10921;BME280;5513;50.580;8.818;2023-04-19T07:40:09;99756.19;;;10.53;100.00
10921;BME280;5513;50.580;8.818;2023-04-19T07:42:37;99760.78;;;10.66;100.00
10921;BME280;5513;50.580;8.818;2023-04-19T07:45:07;99753.78;;;10.65;100.00
10921;BME280;5513;50.580;8.818;2023-04-19T07:47:35;99762.69;;;10.64;100.00
10921;BME280;5513;50.580;8.818;2023-04-19T07:50:06;99750.97;;;10.83;100.00
10921;BME280;5513;50.580;8.818;2023-04-19T07:52:36;99753.94;;;11.09;100.00
10921;BME280;5513;50.580;8.818;2023-04-19T07:55:05;99745.75;;;11.13;100.00
10921;BME280;5513;50.580;8.818;2023-04-19T07:57:34;99753.38;;;11.20;100.00
10921;BME280;5513;50.580;8.818;2023-04-19T08:00:03;99757.13;;;11.15;100.00
10921;BME280;5513;50.580;8.818;2023-04-19T08:02:31;99754.03;;;11.39;100.00
10921;BME280;5513;50.580;8.818;2023-04-19T08:05:00;99758.59;;;11.05;100.00
10921;BME280;5513;50.580;8.818;2023-04-19T08:07:29;99745.00;;;11.11;100.00
10921;BME280;5513;50.580;8.818;2023-04-19T08:09:59;99757.13;;;11.00;100.00
10921;BME280;5513;50.580;8.818;2023-04-19T08:12:27;99756.25;;;10.99;100.00
10921;BME280;5513;50.580;8.818;2023-04-19T08:15:08;99764.84;;;11.20;100.00
10921;BME280;5513;50.580;8.818;2023-04-19T08:17:56;99759.72;;;11.47;100.00
10921;BME280;5513;50.580;8.818;2023-04-19T08:20:25;99763.28;;;11.62;100.00
10921;BME280;5513;50.580;8.818;2023-04-19T08:22:53;99761.03;;;11.70;100.00
10921;BME280;5513;50.580;8.818;2023-04-19T08:25:23;99763.50;;;11.43;100.00
10921;BME280;5513;50.580;8.818;2023-04-19T08:27:54;99765.81;;;11.49;100.00
10921;BME280;5513;50.580;8.818;2023-04-19T08:30:23;99767.09;;;11.72;100.00
10921;BME280;5513;50.580;8.818;2023-04-19T08:32:51;99762.44;;;11.61;100.00
10921;BME280;5513;50.580;8.818;2023-04-19T08:35:22;99763.72;;;11.54;100.00
10921;BME280;5513;50.580;8.818;2023-04-19T08:37:51;99757.63;;;11.68;100.00
10921;BME280;5513;50.580;8.818;2023-04-19T08:40:19;99765.75;;;11.81;100.00
10921;BME280;5513;50.580;8.818;2023-04-19T08:42:49;99755.94;;;12.11;100.00
10921;BME280;5513;50.580;8.818;2023-04-19T08:45:18;99753.56;;;12.35;100.00
10921;BME280;5513;50.580;8.818;2023-04-19T08:47:51;99748.34;;;12.33;100.00
10921;BME280;5513;50.580;8.818;2023-04-19T08:50:27;99750.25;;;12.17;100.00
10921;BME280;5513;50.580;8.818;2023-04-19T08:53:11;99749.13;;;12.36;100.00
10921;BME280;5513;50.580;8.818;2023-04-19T08:55:50;99748.16;;;12.08;100.00
10921;BME280;5513;50.580;8.818;2023-04-19T08:58:45;99747.31;;;12.22;100.00
10921;BME280;5513;50.580;8.818;2023-04-19T09:01:17;99737.94;;;12.30;100.00
10921;BME280;5513;50.580;8.818;2023-04-19T09:04:01;99738.84;;;12.15;100.00
10921;BME280;5513;50.580;8.818;2023-04-19T09:06:51;99741.81;;;12.68;100.00
10921;BME280;5513;50.580;8.818;2023-04-19T09:09:21;99731.75;;;12.44;100.00
10921;BME280;5513;50.580;8.818;2023-04-19T09:11:56;99729.41;;;12.81;100.00
10921;BME280;5513;50.580;8.818;2023-04-19T09:14:28;99735.97;;;12.89;100.00
10921;BME280;5513;50.580;8.818;2023-04-19T09:17:10;99725.47;;;12.59;100.00
10921;BME280;5513;50.580;8.818;2023-04-19T09:19:49;99730.75;;;12.74;100.00
10921;BME280;5513;50.580;8.818;2023-04-19T09:22:17;99728.06;;;12.47;100.00
10921;BME280;5513;50.580;8.818;2023-04-19T09:24:46;99723.66;;;12.74;100.00
10921;BME280;5513;50.580;8.818;2023-04-19T09:27:24;99720.84;;;12.20;100.00
10921;BME280;5513;50.580;8.818;2023-04-19T09:29:57;99724.84;;;12.56;100.00
10921;BME280;5513;50.580;8.818;2023-04-19T09:32:26;99717.72;;;12.56;99.79
10921;BME280;5513;50.580;8.818;2023-04-19T09:34:58;99722.13;;;12.70;97.49
10921;BME280;5513;50.580;8.818;2023-04-19T09:37:27;99717.66;;;12.85;94.28
10921;BME280;5513;50.580;8.818;2023-04-19T09:40:23;99713.94;;;12.87;94.62
10921;BME280;5513;50.580;8.818;2023-04-19T09:42:53;99714.19;;;12.97;92.79
10921;BME280;5513;50.580;8.818;2023-04-19T09:45:27;99706.38;;;13.23;91.91
10921;BME280;5513;50.580;8.818;2023-04-19T09:48:00;99707.25;;;13.36;88.40
10921;BME280;5513;50.580;8.818;2023-04-19T09:50:30;99704.78;;;13.33;84.95
10921;BME280;5513;50.580;8.818;2023-04-19T09:53:05;99703.03;;;13.59;84.65
10921;BME280;5513;50.580;8.818;2023-04-19T09:55:33;99700.81;;;13.65;81.53
10921;BME280;5513;50.580;8.818;2023-04-19T09:58:23;99700.22;;;14.00;78.06
10921;BME280;5513;50.580;8.818;2023-04-19T10:01:02;99698.91;;;14.06;78.58
10921;BME280;5513;50.580;8.818;2023-04-19T10:03:43;99701.38;;;13.70;75.09
10921;BME280;5513;50.580;8.818;2023-04-19T10:06:14;99696.28;;;13.80;71.94
10921;BME280;5513;50.580;8.818;2023-04-19T10:09:04;99690.81;;;14.20;71.66
10921;BME280;5513;50.580;8.818;2023-04-19T10:11:34;99684.81;;;14.42;68.79
10921;BME280;5513;50.580;8.818;2023-04-19T10:14:09;99686.03;;;13.87;68.20
10921;BME280;5513;50.580;8.818;2023-04-19T10:16:39;99683.03;;;14.17;68.40
10921;BME280;5513;50.580;8.818;2023-04-19T10:19:10;99685.50;;;14.82;62.07
10921;BME280;5513;50.580;8.818;2023-04-19T10:21:40;99681.63;;;14.86;63.03
10921;BME280;5513;50.580;8.818;2023-04-19T10:24:12;99677.19;;;14.74;62.93
10921;BME280;5513;50.580;8.818;2023-04-19T10:27:08;99674.94;;;14.80;59.72
10921;BME280;5513;50.580;8.818;2023-04-19T10:29:53;99668.75;;;15.28;58.37
10921;BME280;5513;50.580;8.818;2023-04-19T10:32:25;99667.44;;;15.09;57.31
10921;BME280;5513;50.580;8.818;2023-04-19T10:34:54;99658.22;;;15.72;55.43
10921;BME280;5513;50.580;8.818;2023-04-19T10:37:24;99662.81;;;15.70;55.65
10921;BME280;5513;50.580;8.818;2023-04-19T10:39:53;99667.00;;;15.86;54.90
10921;BME280;5513;50.580;8.818;2023-04-19T10:42:21;99653.97;;;15.70;53.30
10921;BME280;5513;50.580;8.818;2023-04-19T10:45:32;99654.88;;;15.23;53.38
10921;BME280;5513;50.580;8.818;2023-04-19T10:48:03;99662.75;;;15.48;54.04
10921;BME280;5513;50.580;8.818;2023-04-19T10:50:56;99662.88;;;15.93;48.54
10921;BME280;5513;50.580;8.818;2023-04-19T10:53:45;99656.53;;;15.12;52.36
10921;BME280;5513;50.580;8.818;2023-04-19T10:56:14;99634.91;;;15.63;50.19
10921;BME280;5513;50.580;8.818;2023-04-19T10:59:14;99637.16;;;15.57;50.32
10921;BME280;5513;50.580;8.818;2023-04-19T11:01:50;99640.63;;;15.70;49.16
10921;BME280;5513;50.580;8.818;2023-04-19T11:04:23;99629.94;;;15.70;48.22
10921;BME280;5513;50.580;8.818;2023-04-19T11:07:13;99627.53;;;16.23;48.70
10921;BME280;5513;50.580;8.818;2023-04-19T11:09:44;99625.97;;;16.31;46.19
10921;BME280;5513;50.580;8.818;2023-04-19T11:12:14;99621.88;;;16.59;45.71
10921;BME280;5513;50.580;8.818;2023-04-19T11:14:44;99622.81;;;15.93;45.86
10921;BME280;5513;50.580;8.818;2023-04-19T11:17:16;99614.41;;;16.31;44.92
10921;BME280;5513;50.580;8.818;2023-04-19T11:19:55;99609.78;;;16.44;43.31
10921;BME280;5513;50.580;8.818;2023-04-19T11:22:24;99598.28;;;16.65;45.55
10921;BME280;5513;50.580;8.818;2023-04-19T11:24:53;99607.84;;;15.90;47.45
10921;BME280;5513;50.580;8.818;2023-04-19T11:27:23;99603.72;;;15.86;47.13
10921;BME280;5513;50.580;8.818;2023-04-19T11:30:01;99586.94;;;15.62;45.19
10921;BME280;5513;50.580;8.818;2023-04-19T11:32:30;99597.78;;;15.83;45.06
10921;BME280;5513;50.580;8.818;2023-04-19T11:35:05;99595.69;;;16.20;42.72
10921;BME280;5513;50.580;8.818;2023-04-19T11:37:37;99591.59;;;16.59;41.76
10921;BME280;5513;50.580;8.818;2023-04-19T11:40:07;99575.97;;;17.39;41.78
10921;BME280;5513;50.580;8.818;2023-04-19T11:42:36;99572.38;;;15.99;41.26
10921;BME280;5513;50.580;8.818;2023-04-19T11:45:06;99565.94;;;16.24;42.76
10921;BME280;5513;50.580;8.818;2023-04-19T11:47:52;99576.00;;;16.86;40.47
10921;BME280;5513;50.580;8.818;2023-04-19T11:50:32;99566.91;;;17.10;40.14
10921;BME280;5513;50.580;8.818;2023-04-19T11:53:09;99564.88;;;17.02;42.69
10921;BME280;5513;50.580;8.818;2023-04-19T11:55:41;99562.38;;;16.90;40.68
10921;BME280;5513;50.580;8.818;2023-04-19T11:58:25;99556.78;;;17.65;37.92
10921;BME280;5513;50.580;8.818;2023-04-19T12:00:55;99550.81;;;17.72;36.99
10921;BME280;5513;50.580;8.818;2023-04-19T12:03:26;99554.72;;;17.06;37.77
10921;BME280;5513;50.580;8.818;2023-04-19T12:05:58;99549.91;;;17.00;37.72
10921;BME280;5513;50.580;8.818;2023-04-19T12:08:31;99556.34;;;17.81;36.13
10921;BME280;5513;50.580;8.818;2023-04-19T12:11:00;99545.94;;;18.27;36.61
10921;BME280;5513;50.580;8.818;2023-04-19T12:13:29;99540.94;;;17.73;35.41
10921;BME280;5513;50.580;8.818;2023-04-19T12:15:58;99535.88;;;17.28;35.21
10921;BME280;5513;50.580;8.818;2023-04-19T12:18:41;99543.16;;;16.84;34.40
10921;BME280;5513;50.580;8.818;2023-04-19T12:21:23;99535.00;;;16.86;35.31
10921;BME280;5513;50.580;8.818;2023-04-19T12:23:55;99542.25;;;16.74;35.45
10921;BME280;5513;50.580;8.818;2023-04-19T12:26:25;99537.53;;;16.55;34.50
10921;BME280;5513;50.580;8.818;2023-04-19T12:28:54;99529.38;;;17.72;34.03
10921;BME280;5513;50.580;8.818;2023-04-19T12:31:23;99535.50;;;17.94;33.04
10921;BME280;5513;50.580;8.818;2023-04-19T12:33:51;99522.38;;;18.60;33.25
10921;BME280;5513;50.580;8.818;2023-04-19T12:36:21;99530.72;;;18.47;32.58
10921;BME280;5513;50.580;8.818;2023-04-19T12:38:49;99533.88;;;18.12;31.51
10921;BME280;5513;50.580;8.818;2023-04-19T12:41:18;99528.25;;;18.15;32.40
10921;BME280;5513;50.580;8.818;2023-04-19T12:43:46;99532.78;;;18.15;32.96
10921;BME280;5513;50.580;8.818;2023-04-19T12:46:15;99524.25;;;17.39;35.04
10921;BME280;5513;50.580;8.818;2023-04-19T12:48:44;99522.34;;;17.81;34.89
10921;BME280;5513;50.580;8.818;2023-04-19T12:51:13;99530.84;;;17.65;35.62
10921;BME280;5513;50.580;8.818;2023-04-19T12:53:49;99532.47;;;17.47;34.96
10921;BME280;5513;50.580;8.818;2023-04-19T12:56:17;99523.31;;;17.70;35.97
10921;BME280;5513;50.580;8.818;2023-04-19T12:58:46;99523.13;;;17.41;35.27
10921;BME280;5513;50.580;8.818;2023-04-19T13:01:14;99512.13;;;16.93;35.68
10921;BME280;5513;50.580;8.818;2023-04-19T13:03:42;99527.91;;;17.17;36.05
10921;BME280;5513;50.580;8.818;2023-04-19T13:06:11;99522.75;;;18.07;34.94
10921;BME280;5513;50.580;8.818;2023-04-19T13:08:41;99524.94;;;18.62;34.54
10921;BME280;5513;50.580;8.818;2023-04-19T13:11:15;99523.56;;;17.98;34.58
10921;BME280;5513;50.580;8.818;2023-04-19T13:13:50;99513.34;;;18.42;34.32
10921;BME280;5513;50.580;8.818;2023-04-19T13:16:19;99517.69;;;17.83;33.75
10921;BME280;5513;50.580;8.818;2023-04-19T13:18:49;99513.19;;;17.53;35.48
10921;BME280;5513;50.580;8.818;2023-04-19T13:21:18;99512.91;;;17.56;36.02
10921;BME280;5513;50.580;8.818;2023-04-19T13:23:47;99505.50;;;16.76;36.79